< Typhoon 196219 1962 Season Typhoon 196221 >
Typhoon 196220 (CARLA)
General InformationTrack Information on Google Maps || Disaster Info.ResourceGoogle EarthGE AnimationAtom FeedGeoJSON
Detalied Best Track (Time Zone = UTC)
Year Month Day Hour Lat. Long. Pressure (hPa) Wind (kt) Class Image Chart
1962 9 18 06 15.5 122.0 1007 0 2 -- Chart
1962 9 18 12 16.1 120.0 1007 0 2 -- Chart
1962 9 18 18 16.5 118.7 1007 0 2 -- Chart
1962 9 19 00 16.7 117.8 1007 0 2 -- Chart
1962 9 19 06 16.7 117.0 1004 0 2 -- Chart
1962 9 19 12 16.8 116.0 1004 0 2 -- Chart
1962 9 19 18 16.8 115.5 1004 0 2 -- Chart
1962 9 20 00 16.9 115.2 1004 0 2 -- Chart
1962 9 20 06 16.9 114.8 1004 0 2 -- Chart
1962 9 20 12 17.0 114.3 1002 0 2 -- Chart
1962 9 20 18 17.3 113.2 1000 0 2 -- Chart
1962 9 21 00 17.6 112.7 995 0 9 -- Chart
1962 9 21 06 17.8 111.7 985 0 9 -- Chart
1962 9 21 12 18.5 110.5 985 0 9 -- Chart
1962 9 21 18 19.0 109.3 988 0 9 -- Chart
1962 9 22 00 19.4 108.0 988 0 9 -- Chart
1962 9 22 06 19.9 107.0 988 0 9 -- Chart
1962 9 22 12 20.3 105.7 990 0 9 -- Chart
1962 9 22 18 20.6 104.7 995 0 9 -- Chart
1962 9 23 00 20.9 103.5 1000 0 9 -- Chart
1962 9 23 06 21.1 102.4 1004 0 2 -- Chart
1962 9 23 12 21.3 101.6 1004 0 2 -- Chart
Japan Meteorological Agency Best Track Data | Correction Date : 1989-06-01
< Typhoon 196219 1962 Season Typhoon 196221 >

Help